sensor_id;sensor_type;location;lat;lon;timestamp;temperature;humidity
82506;SHT30;72144;51.444;10.560;2023-09-19T00:00:21;19.69;66.08
82506;SHT30;72144;51.444;10.560;2023-09-19T00:02:54;19.69;66.08
82506;SHT30;72144;51.444;10.560;2023-09-19T00:05:21;19.63;66.04
82506;SHT30;72144;51.444;10.560;2023-09-19T00:07:52;19.62;65.97
82506;SHT30;72144;51.444;10.560;2023-09-19T00:10:21;19.59;66.01
82506;SHT30;72144;51.444;10.560;2023-09-19T00:12:47;19.54;66.02
82506;SHT30;72144;51.444;10.560;2023-09-19T00:15:13;19.52;66.01
82506;SHT30;72144;51.444;10.560;2023-09-19T00:17:38;19.50;66.01
82506;SHT30;72144;51.444;10.560;2023-09-19T00:20:06;19.46;65.98
82506;SHT30;72144;51.444;10.560;2023-09-19T00:22:41;19.45;66.01
82506;SHT30;72144;51.444;10.560;2023-09-19T00:25:08;19.45;65.98
82506;SHT30;72144;51.444;10.560;2023-09-19T00:27:35;19.40;65.92
82506;SHT30;72144;51.444;10.560;2023-09-19T00:30:00;19.37;66.01
82506;SHT30;72144;51.444;10.560;2023-09-19T00:32:26;19.35;66.05
82506;SHT30;72144;51.444;10.560;2023-09-19T00:34:57;19.32;66.03
82506;SHT30;72144;51.444;10.560;2023-09-19T00:37:22;19.30;66.01
82506;SHT30;72144;51.444;10.560;2023-09-19T00:39:47;19.29;66.06
82506;SHT30;72144;51.444;10.560;2023-09-19T00:42:22;19.26;66.07
82506;SHT30;72144;51.444;10.560;2023-09-19T00:44:47;19.22;66.05
82506;SHT30;72144;51.444;10.560;2023-09-19T00:47:16;19.19;66.04
82506;SHT30;72144;51.444;10.560;2023-09-19T00:49:45;19.18;65.99
82506;SHT30;72144;51.444;10.560;2023-09-19T00:52:14;19.15;66.03
82506;SHT30;72144;51.444;10.560;2023-09-19T00:54:39;19.14;66.00
82506;SHT30;72144;51.444;10.560;2023-09-19T00:57:05;19.12;66.02
82506;SHT30;72144;51.444;10.560;2023-09-19T00:59:33;19.08;66.01
82506;SHT30;72144;51.444;10.560;2023-09-19T01:02:02;19.05;65.96
82506;SHT30;72144;51.444;10.560;2023-09-19T01:04:27;19.01;65.97
82506;SHT30;72144;51.444;10.560;2023-09-19T01:06:53;19.00;66.00
82506;SHT30;72144;51.444;10.560;2023-09-19T01:09:19;18.97;66.01
82506;SHT30;72144;51.444;10.560;2023-09-19T01:11:47;18.97;65.96
82506;SHT30;72144;51.444;10.560;2023-09-19T01:17:03;18.90;65.96
82506;SHT30;72144;51.444;10.560;2023-09-19T01:20:09;18.87;66.01
82506;SHT30;72144;51.444;10.560;2023-09-19T01:30:44;18.78;65.98
82506;SHT30;72144;51.444;10.560;2023-09-19T01:33:10;18.78;65.95
82506;SHT30;72144;51.444;10.560;2023-09-19T01:35:39;18.75;66.00
82506;SHT30;72144;51.444;10.560;2023-09-19T01:38:06;18.74;66.02
82506;SHT30;72144;51.444;10.560;2023-09-19T01:40:41;18.73;66.04
82506;SHT30;72144;51.444;10.560;2023-09-19T01:46:09;18.73;65.93
82506;SHT30;72144;51.444;10.560;2023-09-19T01:48:42;18.70;65.93
82506;SHT30;72144;51.444;10.560;2023-09-19T01:51:14;18.70;65.98
82506;SHT30;72144;51.444;10.560;2023-09-19T01:53:57;18.68;65.93
82506;SHT30;72144;51.444;10.560;2023-09-19T01:56:35;18.64;65.92
82506;SHT30;72144;51.444;10.560;2023-09-19T01:59:07;18.63;65.89
82506;SHT30;72144;51.444;10.560;2023-09-19T02:01:34;18.63;65.78
82506;SHT30;72144;51.444;10.560;2023-09-19T02:04:03;18.61;65.76
82506;SHT30;72144;51.444;10.560;2023-09-19T02:06:29;18.57;65.71
82506;SHT30;72144;51.444;10.560;2023-09-19T02:08:54;18.57;65.68
82506;SHT30;72144;51.444;10.560;2023-09-19T02:11:45;18.56;65.74
82506;SHT30;72144;51.444;10.560;2023-09-19T02:14:11;18.53;65.62
82506;SHT30;72144;51.444;10.560;2023-09-19T02:16:37;18.53;65.62
82506;SHT30;72144;51.444;10.560;2023-09-19T02:19:02;18.46;65.63
82506;SHT30;72144;51.444;10.560;2023-09-19T02:21:31;18.45;65.60
82506;SHT30;72144;51.444;10.560;2023-09-19T02:23:57;18.45;65.58
82506;SHT30;72144;51.444;10.560;2023-09-19T02:26:22;18.38;65.61
82506;SHT30;72144;51.444;10.560;2023-09-19T02:28:48;18.38;65.59
82506;SHT30;72144;51.444;10.560;2023-09-19T02:31:14;18.35;65.55
82506;SHT30;72144;51.444;10.560;2023-09-19T02:33:39;18.31;65.56
82506;SHT30;72144;51.444;10.560;2023-09-19T02:36:05;18.29;65.55
82506;SHT30;72144;51.444;10.560;2023-09-19T02:38:30;18.26;65.54
82506;SHT30;72144;51.444;10.560;2023-09-19T02:40:56;18.22;65.43
82506;SHT30;72144;51.444;10.560;2023-09-19T02:43:22;18.19;65.41
82506;SHT30;72144;51.444;10.560;2023-09-19T02:45:48;18.16;65.38
82506;SHT30;72144;51.444;10.560;2023-09-19T02:48:20;18.12;65.38
82506;SHT30;72144;51.444;10.560;2023-09-19T02:50:54;18.11;65.49
82506;SHT30;72144;51.444;10.560;2023-09-19T02:53:20;18.08;65.42
82506;SHT30;72144;51.444;10.560;2023-09-19T02:55:46;18.05;65.41
82506;SHT30;72144;51.444;10.560;2023-09-19T02:58:12;18.05;65.40
82506;SHT30;72144;51.444;10.560;2023-09-19T03:00:39;18.00;65.34
82506;SHT30;72144;51.444;10.560;2023-09-19T03:03:07;17.98;65.35
82506;SHT30;72144;51.444;10.560;2023-09-19T03:05:33;17.97;65.32
82506;SHT30;72144;51.444;10.560;2023-09-19T03:07:59;17.94;65.28
82506;SHT30;72144;51.444;10.560;2023-09-19T03:10:28;17.90;65.33
82506;SHT30;72144;51.444;10.560;2023-09-19T03:12:54;17.88;65.24
82506;SHT30;72144;51.444;10.560;2023-09-19T03:15:20;17.84;65.28
82506;SHT30;72144;51.444;10.560;2023-09-19T03:17:47;17.81;65.31
82506;SHT30;72144;51.444;10.560;2023-09-19T03:20:14;17.77;65.28
82506;SHT30;72144;51.444;10.560;2023-09-19T03:22:43;17.78;65.24
82506;SHT30;72144;51.444;10.560;2023-09-19T03:25:08;17.73;65.19
82506;SHT30;72144;51.444;10.560;2023-09-19T03:27:35;17.71;65.15
82506;SHT30;72144;51.444;10.560;2023-09-19T03:30:00;17.69;65.24
82506;SHT30;72144;51.444;10.560;2023-09-19T03:32:26;17.66;65.19
82506;SHT30;72144;51.444;10.560;2023-09-19T03:34:51;17.62;65.25
82506;SHT30;72144;51.444;10.560;2023-09-19T03:37:17;17.60;65.27
82506;SHT30;72144;51.444;10.560;2023-09-19T03:39:43;17.60;65.25
82506;SHT30;72144;51.444;10.560;2023-09-19T03:42:08;17.56;65.24
82506;SHT30;72144;51.444;10.560;2023-09-19T03:44:34;17.54;65.25
82506;SHT30;72144;51.444;10.560;2023-09-19T03:46:59;17.50;65.30
82506;SHT30;72144;51.444;10.560;2023-09-19T03:49:25;17.46;65.29
82506;SHT30;72144;51.444;10.560;2023-09-19T03:51:50;17.46;65.39
82506;SHT30;72144;51.444;10.560;2023-09-19T03:54:15;17.42;65.37
82506;SHT30;72144;51.444;10.560;2023-09-19T03:56:42;17.39;65.38
82506;SHT30;72144;51.444;10.560;2023-09-19T03:59:09;17.36;65.39
82506;SHT30;72144;51.444;10.560;2023-09-19T04:01:34;17.33;65.38
82506;SHT30;72144;51.444;10.560;2023-09-19T04:04:00;17.32;65.33
82506;SHT30;72144;51.444;10.560;2023-09-19T04:06:36;17.29;65.43
82506;SHT30;72144;51.444;10.560;2023-09-19T04:09:02;17.28;65.35
82506;SHT30;72144;51.444;10.560;2023-09-19T04:11:29;17.25;65.37
82506;SHT30;72144;51.444;10.560;2023-09-19T04:13:54;17.24;65.35
82506;SHT30;72144;51.444;10.560;2023-09-19T04:16:19;17.21;65.34
82506;SHT30;72144;51.444;10.560;2023-09-19T04:18:45;17.16;65.36
82506;SHT30;72144;51.444;10.560;2023-09-19T04:21:10;17.15;65.41
82506;SHT30;72144;51.444;10.560;2023-09-19T04:23:36;17.11;65.48
82506;SHT30;72144;51.444;10.560;2023-09-19T04:26:01;17.08;65.47
82506;SHT30;72144;51.444;10.560;2023-09-19T04:28:29;17.07;65.45
82506;SHT30;72144;51.444;10.560;2023-09-19T04:30:54;16.98;65.44
82506;SHT30;72144;51.444;10.560;2023-09-19T04:33:20;16.98;65.49
82506;SHT30;72144;51.444;10.560;2023-09-19T04:35:49;16.95;65.45
82506;SHT30;72144;51.444;10.560;2023-09-19T04:38:14;16.94;65.47
82506;SHT30;72144;51.444;10.560;2023-09-19T04:40:40;16.91;65.43
82506;SHT30;72144;51.444;10.560;2023-09-19T04:43:05;16.90;65.41
82506;SHT30;72144;51.444;10.560;2023-09-19T04:45:31;16.87;65.46
82506;SHT30;72144;51.444;10.560;2023-09-19T04:47:56;16.84;65.44
82506;SHT30;72144;51.444;10.560;2023-09-19T04:50:21;16.80;65.47
82506;SHT30;72144;51.444;10.560;2023-09-19T04:52:51;16.79;65.46
82506;SHT30;72144;51.444;10.560;2023-09-19T04:55:17;16.79;65.46
82506;SHT30;72144;51.444;10.560;2023-09-19T04:57:49;16.74;65.47
82506;SHT30;72144;51.444;10.560;2023-09-19T05:00:15;16.73;65.37
82506;SHT30;72144;51.444;10.560;2023-09-19T05:02:42;16.71;65.47
82506;SHT30;72144;51.444;10.560;2023-09-19T05:05:08;16.69;65.46
82506;SHT30;72144;51.444;10.560;2023-09-19T05:07:36;16.69;65.47
82506;SHT30;72144;51.444;10.560;2023-09-19T05:10:06;16.69;65.39
82506;SHT30;72144;51.444;10.560;2023-09-19T05:12:33;16.64;65.41
82506;SHT30;72144;51.444;10.560;2023-09-19T05:14:59;16.64;65.45
82506;SHT30;72144;51.444;10.560;2023-09-19T05:17:26;16.63;65.42
82506;SHT30;72144;51.444;10.560;2023-09-19T05:19:52;16.63;65.45
82506;SHT30;72144;51.444;10.560;2023-09-19T05:22:18;16.62;65.36
82506;SHT30;72144;51.444;10.560;2023-09-19T05:24:44;16.62;65.37
82506;SHT30;72144;51.444;10.560;2023-09-19T05:27:14;16.60;65.39
82506;SHT30;72144;51.444;10.560;2023-09-19T05:29:42;16.57;65.53
82506;SHT30;72144;51.444;10.560;2023-09-19T05:32:08;16.59;65.41
82506;SHT30;72144;51.444;10.560;2023-09-19T05:34:34;16.56;65.45
82506;SHT30;72144;51.444;10.560;2023-09-19T05:36:59;16.57;65.43
82506;SHT30;72144;51.444;10.560;2023-09-19T05:39:25;16.56;65.49
82506;SHT30;72144;51.444;10.560;2023-09-19T05:41:50;16.56;65.59
82506;SHT30;72144;51.444;10.560;2023-09-19T05:44:15;16.55;65.71
82506;SHT30;72144;51.444;10.560;2023-09-19T05:46:41;16.56;65.65
82506;SHT30;72144;51.444;10.560;2023-09-19T05:49:06;16.53;65.65
82506;SHT30;72144;51.444;10.560;2023-09-19T05:51:31;16.55;65.62
82506;SHT30;72144;51.444;10.560;2023-09-19T05:53:57;16.53;65.60
82506;SHT30;72144;51.444;10.560;2023-09-19T05:56:23;16.53;65.64
82506;SHT30;72144;51.444;10.560;2023-09-19T05:58:48;16.52;65.65
82506;SHT30;72144;51.444;10.560;2023-09-19T06:01:15;16.52;65.69
82506;SHT30;72144;51.444;10.560;2023-09-19T06:03:40;16.52;65.65
82506;SHT30;72144;51.444;10.560;2023-09-19T06:06:05;16.51;65.69
82506;SHT30;72144;51.444;10.560;2023-09-19T06:08:34;16.52;65.70
82506;SHT30;72144;51.444;10.560;2023-09-19T06:11:00;16.52;65.68
82506;SHT30;72144;51.444;10.560;2023-09-19T06:13:28;16.52;65.71
82506;SHT30;72144;51.444;10.560;2023-09-19T06:15:55;16.52;65.78
82506;SHT30;72144;51.444;10.560;2023-09-19T06:18:21;16.49;65.79
82506;SHT30;72144;51.444;10.560;2023-09-19T06:20:47;16.51;65.86
82506;SHT30;72144;51.444;10.560;2023-09-19T06:23:13;16.51;65.92
82506;SHT30;72144;51.444;10.560;2023-09-19T06:25:39;16.51;65.97
82506;SHT30;72144;51.444;10.560;2023-09-19T06:28:05;16.53;65.99
82506;SHT30;72144;51.444;10.560;2023-09-19T06:30:33;16.52;65.97
82506;SHT30;72144;51.444;10.560;2023-09-19T06:33:00;16.53;65.96
82506;SHT30;72144;51.444;10.560;2023-09-19T06:35:26;16.55;65.94
82506;SHT30;72144;51.444;10.560;2023-09-19T06:37:52;16.56;66.00
82506;SHT30;72144;51.444;10.560;2023-09-19T06:40:18;16.59;65.93
82506;SHT30;72144;51.444;10.560;2023-09-19T06:42:46;16.59;65.94
82506;SHT30;72144;51.444;10.560;2023-09-19T06:45:13;16.60;65.92
82506;SHT30;72144;51.444;10.560;2023-09-19T06:47:46;16.59;65.88
82506;SHT30;72144;51.444;10.560;2023-09-19T06:50:14;16.59;65.83
82506;SHT30;72144;51.444;10.560;2023-09-19T06:52:41;16.60;65.84
82506;SHT30;72144;51.444;10.560;2023-09-19T06:55:07;16.62;65.87
82506;SHT30;72144;51.444;10.560;2023-09-19T06:57:32;16.66;65.85
82506;SHT30;72144;51.444;10.560;2023-09-19T06:59:58;16.63;65.89
82506;SHT30;72144;51.444;10.560;2023-09-19T07:02:23;16.64;65.96
82506;SHT30;72144;51.444;10.560;2023-09-19T07:04:48;16.66;65.90
82506;SHT30;72144;51.444;10.560;2023-09-19T07:07:15;16.66;65.84
82506;SHT30;72144;51.444;10.560;2023-09-19T07:09:41;16.69;65.81
82506;SHT30;72144;51.444;10.560;2023-09-19T07:12:07;16.69;65.81
82506;SHT30;72144;51.444;10.560;2023-09-19T07:14:32;16.66;65.68
82506;SHT30;72144;51.444;10.560;2023-09-19T07:16:58;16.73;65.66
82506;SHT30;72144;51.444;10.560;2023-09-19T07:19:26;16.70;65.62
82506;SHT30;72144;51.444;10.560;2023-09-19T07:21:54;16.73;65.64
82506;SHT30;72144;51.444;10.560;2023-09-19T07:24:19;16.76;65.51
82506;SHT30;72144;51.444;10.560;2023-09-19T07:26:46;16.79;65.41
82506;SHT30;72144;51.444;10.560;2023-09-19T07:29:11;16.77;65.35
82506;SHT30;72144;51.444;10.560;2023-09-19T07:31:37;16.77;65.32
82506;SHT30;72144;51.444;10.560;2023-09-19T07:34:02;16.79;65.30
82506;SHT30;72144;51.444;10.560;2023-09-19T07:36:29;16.83;65.26
82506;SHT30;72144;51.444;10.560;2023-09-19T07:38:55;16.87;65.20
82506;SHT30;72144;51.444;10.560;2023-09-19T07:41:23;16.87;65.08
82506;SHT30;72144;51.444;10.560;2023-09-19T07:43:49;16.87;65.03
82506;SHT30;72144;51.444;10.560;2023-09-19T07:46:14;16.90;64.95
82506;SHT30;72144;51.444;10.560;2023-09-19T07:48:39;16.92;64.80
82506;SHT30;72144;51.444;10.560;2023-09-19T07:51:06;16.92;64.69
82506;SHT30;72144;51.444;10.560;2023-09-19T07:53:33;16.97;64.68
82506;SHT30;72144;51.444;10.560;2023-09-19T07:56:06;16.97;64.41
82506;SHT30;72144;51.444;10.560;2023-09-19T07:58:32;16.98;64.42
82506;SHT30;72144;51.444;10.560;2023-09-19T08:01:08;16.98;64.16
82506;SHT30;72144;51.444;10.560;2023-09-19T08:03:34;17.03;64.19
82506;SHT30;72144;51.444;10.560;2023-09-19T08:06:03;17.04;64.11
82506;SHT30;72144;51.444;10.560;2023-09-19T08:08:29;17.07;63.92
82506;SHT30;72144;51.444;10.560;2023-09-19T08:10:55;17.05;63.77
82506;SHT30;72144;51.444;10.560;2023-09-19T08:13:25;17.11;63.63
82506;SHT30;72144;51.444;10.560;2023-09-19T08:15:52;17.15;63.84
82506;SHT30;72144;51.444;10.560;2023-09-19T08:18:20;17.16;63.78
82506;SHT30;72144;51.444;10.560;2023-09-19T08:20:50;17.18;63.60
82506;SHT30;72144;51.444;10.560;2023-09-19T08:23:16;17.22;63.51
82506;SHT30;72144;51.444;10.560;2023-09-19T08:25:43;17.26;63.30
82506;SHT30;72144;51.444;10.560;2023-09-19T08:28:08;17.29;63.13
82506;SHT30;72144;51.444;10.560;2023-09-19T08:30:37;17.32;63.10
82506;SHT30;72144;51.444;10.560;2023-09-19T08:33:05;17.35;62.88
82506;SHT30;72144;51.444;10.560;2023-09-19T08:35:31;17.42;62.61
82506;SHT30;72144;51.444;10.560;2023-09-19T08:37:57;17.46;62.39
82506;SHT30;72144;51.444;10.560;2023-09-19T08:40:23;17.47;62.18
82506;SHT30;72144;51.444;10.560;2023-09-19T08:42:55;17.52;62.13
82506;SHT30;72144;51.444;10.560;2023-09-19T08:45:23;17.56;62.13
82506;SHT30;72144;51.444;10.560;2023-09-19T08:51:02;17.67;61.71
82506;SHT30;72144;51.444;10.560;2023-09-19T08:56:00;17.73;61.59
82506;SHT30;72144;51.444;10.560;2023-09-19T08:58:31;17.77;61.36
82506;SHT30;72144;51.444;10.560;2023-09-19T09:01:00;17.81;61.65
82506;SHT30;72144;51.444;10.560;2023-09-19T09:03:27;17.86;61.41
82506;SHT30;72144;51.444;10.560;2023-09-19T09:05:54;17.91;61.53
82506;SHT30;72144;51.444;10.560;2023-09-19T09:08:20;17.95;61.55
82506;SHT30;72144;51.444;10.560;2023-09-19T09:10:47;18.01;61.47
82506;SHT30;72144;51.444;10.560;2023-09-19T09:13:13;18.05;61.46
82506;SHT30;72144;51.444;10.560;2023-09-19T09:15:40;18.09;61.40
82506;SHT30;72144;51.444;10.560;2023-09-19T09:18:06;18.15;61.14
82506;SHT30;72144;51.444;10.560;2023-09-19T09:20:31;18.19;61.28
82506;SHT30;72144;51.444;10.560;2023-09-19T09:22:57;18.22;61.14
82506;SHT30;72144;51.444;10.560;2023-09-19T09:25:49;18.29;60.92
82506;SHT30;72144;51.444;10.560;2023-09-19T09:28:23;18.32;61.21
82506;SHT30;72144;51.444;10.560;2023-09-19T09:30:49;18.39;61.08
82506;SHT30;72144;51.444;10.560;2023-09-19T09:33:16;18.47;61.09
82506;SHT30;72144;51.444;10.560;2023-09-19T09:35:52;18.55;60.50
82506;SHT30;72144;51.444;10.560;2023-09-19T09:38:21;18.59;60.75
82506;SHT30;72144;51.444;10.560;2023-09-19T09:40:51;18.66;60.64
82506;SHT30;72144;51.444;10.560;2023-09-19T09:43:27;18.70;60.78
82506;SHT30;72144;51.444;10.560;2023-09-19T09:46:20;18.81;60.54
82506;SHT30;72144;51.444;10.560;2023-09-19T09:48:47;18.85;60.47
82506;SHT30;72144;51.444;10.560;2023-09-19T09:51:33;18.92;60.42
82506;SHT30;72144;51.444;10.560;2023-09-19T09:54:15;19.00;59.98
82506;SHT30;72144;51.444;10.560;2023-09-19T09:56:54;19.07;59.71
82506;SHT30;72144;51.444;10.560;2023-09-19T10:02:09;19.22;59.95
82506;SHT30;72144;51.444;10.560;2023-09-19T10:04:38;19.26;59.75
82506;SHT30;72144;51.444;10.560;2023-09-19T10:07:30;19.35;59.39
82506;SHT30;72144;51.444;10.560;2023-09-19T10:10:03;19.42;59.75
82506;SHT30;72144;51.444;10.560;2023-09-19T10:12:43;19.49;59.32
82506;SHT30;72144;51.444;10.560;2023-09-19T10:15:11;19.54;59.17
82506;SHT30;72144;51.444;10.560;2023-09-19T10:17:42;19.63;59.04
82506;SHT30;72144;51.444;10.560;2023-09-19T10:20:09;19.70;58.96
82506;SHT30;72144;51.444;10.560;2023-09-19T10:22:48;19.77;58.78
82506;SHT30;72144;51.444;10.560;2023-09-19T10:25:27;19.84;58.63
82506;SHT30;72144;51.444;10.560;2023-09-19T10:27:54;19.92;58.94
82506;SHT30;72144;51.444;10.560;2023-09-19T10:30:22;19.99;58.38
82506;SHT30;72144;51.444;10.560;2023-09-19T10:32:57;20.05;57.72
82506;SHT30;72144;51.444;10.560;2023-09-19T10:35:23;20.14;58.48
82506;SHT30;72144;51.444;10.560;2023-09-19T10:37:50;20.24;57.83
82506;SHT30;72144;51.444;10.560;2023-09-19T10:40:18;20.32;57.73
82506;SHT30;72144;51.444;10.560;2023-09-19T10:42:45;20.42;57.89
82506;SHT30;72144;51.444;10.560;2023-09-19T10:45:12;20.47;57.63
82506;SHT30;72144;51.444;10.560;2023-09-19T10:47:40;20.53;57.78
82506;SHT30;72144;51.444;10.560;2023-09-19T10:50:06;20.60;57.61
82506;SHT30;72144;51.444;10.560;2023-09-19T10:52:40;20.68;57.54
82506;SHT30;72144;51.444;10.560;2023-09-19T10:55:07;20.77;57.62
82506;SHT30;72144;51.444;10.560;2023-09-19T10:57:34;20.85;57.06
82506;SHT30;72144;51.444;10.560;2023-09-19T11:00:03;20.92;57.23
82506;SHT30;72144;51.444;10.560;2023-09-19T11:06:00;21.12;56.00
82506;SHT30;72144;51.444;10.560;2023-09-19T11:08:27;21.16;55.98
82506;SHT30;72144;51.444;10.560;2023-09-19T11:10:52;21.25;55.86
82506;SHT30;72144;51.444;10.560;2023-09-19T11:13:28;21.29;55.41
82506;SHT30;72144;51.444;10.560;2023-09-19T11:18:54;21.39;55.33
82506;SHT30;72144;51.444;10.560;2023-09-19T11:26:48;21.61;55.82
82506;SHT30;72144;51.444;10.560;2023-09-19T11:29:27;21.67;55.06
82506;SHT30;72144;51.444;10.560;2023-09-19T11:31:54;21.75;55.37
82506;SHT30;72144;51.444;10.560;2023-09-19T11:48:13;22.22;53.45
82506;SHT30;72144;51.444;10.560;2023-09-19T11:50:42;22.29;54.11
82506;SHT30;72144;51.444;10.560;2023-09-19T11:53:12;22.35;53.59
82506;SHT30;72144;51.444;10.560;2023-09-19T11:55:39;22.40;53.25
82506;SHT30;72144;51.444;10.560;2023-09-19T11:58:07;22.47;53.54
82506;SHT30;72144;51.444;10.560;2023-09-19T12:00:35;22.54;52.50
82506;SHT30;72144;51.444;10.560;2023-09-19T12:03:08;22.60;52.75
82506;SHT30;72144;51.444;10.560;2023-09-19T12:05:34;22.61;52.40
82506;SHT30;72144;51.444;10.560;2023-09-19T12:08:00;22.67;52.20
82506;SHT30;72144;51.444;10.560;2023-09-19T12:10:27;22.70;52.33
82506;SHT30;72144;51.444;10.560;2023-09-19T12:12:52;22.71;52.26
82506;SHT30;72144;51.444;10.560;2023-09-19T12:15:25;22.75;52.01
82506;SHT30;72144;51.444;10.560;2023-09-19T12:17:59;22.80;52.71
82506;SHT30;72144;51.444;10.560;2023-09-19T12:20:24;22.86;52.44
82506;SHT30;72144;51.444;10.560;2023-09-19T12:22:50;22.88;52.80
82506;SHT30;72144;51.444;10.560;2023-09-19T12:25:15;22.94;52.11
82506;SHT30;72144;51.444;10.560;2023-09-19T12:27:49;22.97;51.54
82506;SHT30;72144;51.444;10.560;2023-09-19T12:30:27;23.01;51.33
82506;SHT30;72144;51.444;10.560;2023-09-19T12:32:53;23.05;52.39
82506;SHT30;72144;51.444;10.560;2023-09-19T12:35:28;23.11;52.11
82506;SHT30;72144;51.444;10.560;2023-09-19T12:37:55;23.15;51.80
82506;SHT30;72144;51.444;10.560;2023-09-19T12:40:22;23.19;52.30
82506;SHT30;72144;51.444;10.560;2023-09-19T12:42:53;23.23;50.70
82506;SHT30;72144;51.444;10.560;2023-09-19T12:45:20;23.30;51.20
82506;SHT30;72144;51.444;10.560;2023-09-19T12:48:17;23.38;51.52
82506;SHT30;72144;51.444;10.560;2023-09-19T12:51:07;23.43;50.87
82506;SHT30;72144;51.444;10.560;2023-09-19T12:53:37;23.46;50.76
82506;SHT30;72144;51.444;10.560;2023-09-19T12:56:06;23.50;50.32
82506;SHT30;72144;51.444;10.560;2023-09-19T12:58:34;23.51;50.86
82506;SHT30;72144;51.444;10.560;2023-09-19T13:01:00;23.56;50.25
82506;SHT30;72144;51.444;10.560;2023-09-19T13:03:27;23.64;49.94
82506;SHT30;72144;51.444;10.560;2023-09-19T13:06:03;23.67;49.67
82506;SHT30;72144;51.444;10.560;2023-09-19T13:08:37;23.71;50.12
82506;SHT30;72144;51.444;10.560;2023-09-19T13:11:12;23.79;49.30
82506;SHT30;72144;51.444;10.560;2023-09-19T13:13:39;23.88;52.14
82506;SHT30;72144;51.444;10.560;2023-09-19T13:16:04;23.95;50.03
82506;SHT30;72144;51.444;10.560;2023-09-19T13:21:12;24.01;48.64
82506;SHT30;72144;51.444;10.560;2023-09-19T13:23:43;24.08;47.92
82506;SHT30;72144;51.444;10.560;2023-09-19T13:26:10;24.12;47.98
82506;SHT30;72144;51.444;10.560;2023-09-19T13:28:38;24.16;48.30
82506;SHT30;72144;51.444;10.560;2023-09-19T13:31:04;24.26;48.69
82506;SHT30;72144;51.444;10.560;2023-09-19T13:33:31;24.30;48.02
82506;SHT30;72144;51.444;10.560;2023-09-19T13:35:57;24.37;48.18
82506;SHT30;72144;51.444;10.560;2023-09-19T13:38:23;24.41;46.98
82506;SHT30;72144;51.444;10.560;2023-09-19T13:40:48;24.44;47.51
82506;SHT30;72144;51.444;10.560;2023-09-19T13:43:14;24.50;46.83
82506;SHT30;72144;51.444;10.560;2023-09-19T13:45:41;24.55;46.27
82506;SHT30;72144;51.444;10.560;2023-09-19T13:48:09;24.60;46.34
82506;SHT30;72144;51.444;10.560;2023-09-19T13:50:37;24.60;46.73
82506;SHT30;72144;51.444;10.560;2023-09-19T13:53:10;24.63;47.15
82506;SHT30;72144;51.444;10.560;2023-09-19T13:55:35;24.67;47.61
82506;SHT30;72144;51.444;10.560;2023-09-19T13:58:03;24.66;47.36
82506;SHT30;72144;51.444;10.560;2023-09-19T14:00:31;24.68;47.74
82506;SHT30;72144;51.444;10.560;2023-09-19T14:03:00;24.71;47.12
82506;SHT30;72144;51.444;10.560;2023-09-19T14:05:26;24.74;46.76
82506;SHT30;72144;51.444;10.560;2023-09-19T14:07:53;24.74;48.41
82506;SHT30;72144;51.444;10.560;2023-09-19T14:10:19;24.80;48.11
82506;SHT30;72144;51.444;10.560;2023-09-19T14:12:46;24.84;48.04
82506;SHT30;72144;51.444;10.560;2023-09-19T14:15:13;24.85;48.02
82506;SHT30;72144;51.444;10.560;2023-09-19T14:17:39;24.87;47.84
82506;SHT30;72144;51.444;10.560;2023-09-19T14:20:05;24.88;48.69
82506;SHT30;72144;51.444;10.560;2023-09-19T14:22:32;24.94;48.59
82506;SHT30;72144;51.444;10.560;2023-09-19T14:24:58;24.95;48.10
82506;SHT30;72144;51.444;10.560;2023-09-19T14:27:24;24.96;47.52
82506;SHT30;72144;51.444;10.560;2023-09-19T14:29:50;24.99;47.87
82506;SHT30;72144;51.444;10.560;2023-09-19T14:32:16;24.98;48.14
82506;SHT30;72144;51.444;10.560;2023-09-19T14:34:43;24.96;47.51
82506;SHT30;72144;51.444;10.560;2023-09-19T14:37:09;24.92;48.19
82506;SHT30;72144;51.444;10.560;2023-09-19T14:39:36;24.94;47.23
82506;SHT30;72144;51.444;10.560;2023-09-19T14:42:04;24.90;47.63
82506;SHT30;72144;51.444;10.560;2023-09-19T14:44:29;24.85;47.37
82506;SHT30;72144;51.444;10.560;2023-09-19T14:46:55;24.84;47.97
82506;SHT30;72144;51.444;10.560;2023-09-19T14:49:20;24.83;47.63
82506;SHT30;72144;51.444;10.560;2023-09-19T14:51:46;24.77;47.72
82506;SHT30;72144;51.444;10.560;2023-09-19T14:54:13;24.75;47.86
82506;SHT30;72144;51.444;10.560;2023-09-19T14:56:43;24.74;47.94
82506;SHT30;72144;51.444;10.560;2023-09-19T14:59:08;24.70;47.41
82506;SHT30;72144;51.444;10.560;2023-09-19T15:01:36;24.64;47.34
82506;SHT30;72144;51.444;10.560;2023-09-19T15:04:01;24.64;47.13
82506;SHT30;72144;51.444;10.560;2023-09-19T15:06:27;24.64;48.16
82506;SHT30;72144;51.444;10.560;2023-09-19T15:08:52;24.64;47.36
82506;SHT30;72144;51.444;10.560;2023-09-19T15:11:18;24.64;47.64
82506;SHT30;72144;51.444;10.560;2023-09-19T15:13:44;24.64;47.80
82506;SHT30;72144;51.444;10.560;2023-09-19T15:16:10;24.64;46.69
82506;SHT30;72144;51.444;10.560;2023-09-19T15:18:37;24.64;46.28
82506;SHT30;72144;51.444;10.560;2023-09-19T15:21:06;24.64;46.39
82506;SHT30;72144;51.444;10.560;2023-09-19T15:23:32;24.64;47.31
82506;SHT30;72144;51.444;10.560;2023-09-19T15:26:03;24.66;45.60
82506;SHT30;72144;51.444;10.560;2023-09-19T15:28:28;24.67;46.44
82506;SHT30;72144;51.444;10.560;2023-09-19T15:31:02;24.63;46.29
82506;SHT30;72144;51.444;10.560;2023-09-19T15:33:27;24.61;46.53
82506;SHT30;72144;51.444;10.560;2023-09-19T15:36:06;24.57;46.53
82506;SHT30;72144;51.444;10.560;2023-09-19T15:38:55;24.52;46.73
82506;SHT30;72144;51.444;10.560;2023-09-19T15:41:23;24.47;46.38
82506;SHT30;72144;51.444;10.560;2023-09-19T15:43:49;24.40;46.58
82506;SHT30;72144;51.444;10.560;2023-09-19T15:46:14;24.33;46.76
82506;SHT30;72144;51.444;10.560;2023-09-19T15:48:40;24.26;46.88
82506;SHT30;72144;51.444;10.560;2023-09-19T15:51:06;24.18;46.87
82506;SHT30;72144;51.444;10.560;2023-09-19T15:53:45;24.11;46.81
82506;SHT30;72144;51.444;10.560;2023-09-19T15:56:12;24.02;47.36
82506;SHT30;72144;51.444;10.560;2023-09-19T15:58:43;23.93;47.01
82506;SHT30;72144;51.444;10.560;2023-09-19T16:01:08;23.82;47.35
82506;SHT30;72144;51.444;10.560;2023-09-19T16:03:35;23.71;47.82
82506;SHT30;72144;51.444;10.560;2023-09-19T16:06:01;23.59;47.72
82506;SHT30;72144;51.444;10.560;2023-09-19T16:08:27;23.50;48.39
82506;SHT30;72144;51.444;10.560;2023-09-19T16:10:52;23.43;48.31